sensor_id;sensor_type;location;lat;lon;timestamp;P1;durP1;ratioP1;P2;durP2;ratioP2
56429;SDS011;42332;52.136;20.666;2023-04-28T00:02:12;27.15;;;10.23;;
56429;SDS011;42332;52.136;20.666;2023-04-28T00:04:38;23.33;;;10.48;;
56429;SDS011;42332;52.136;20.666;2023-04-28T00:07:03;26.70;;;10.93;;
56429;SDS011;42332;52.136;20.666;2023-04-28T00:09:28;27.50;;;10.10;;
56429;SDS011;42332;52.136;20.666;2023-04-28T00:11:54;25.00;;;10.55;;
56429;SDS011;42332;52.136;20.666;2023-04-28T00:14:19;29.10;;;10.20;;
56429;SDS011;42332;52.136;20.666;2023-04-28T00:16:44;29.23;;;10.68;;
56429;SDS011;42332;52.136;20.666;2023-04-28T00:19:10;24.23;;;10.35;;
56429;SDS011;42332;52.136;20.666;2023-04-28T00:21:35;31.02;;;10.75;;
56429;SDS011;42332;52.136;20.666;2023-04-28T00:24:00;24.85;;;9.73;;
56429;SDS011;42332;52.136;20.666;2023-04-28T00:26:26;27.38;;;10.25;;
56429;SDS011;42332;52.136;20.666;2023-04-28T00:28:51;28.23;;;9.93;;
56429;SDS011;42332;52.136;20.666;2023-04-28T00:31:16;19.25;;;8.45;;
56429;SDS011;42332;52.136;20.666;2023-04-28T00:33:42;29.48;;;10.20;;
56429;SDS011;42332;52.136;20.666;2023-04-28T00:36:08;31.77;;;11.02;;
56429;SDS011;42332;52.136;20.666;2023-04-28T00:38:34;20.23;;;9.20;;
56429;SDS011;42332;52.136;20.666;2023-04-28T00:40:59;28.65;;;10.27;;
56429;SDS011;42332;52.136;20.666;2023-04-28T00:43:25;22.75;;;9.52;;
56429;SDS011;42332;52.136;20.666;2023-04-28T00:45:51;20.50;;;8.82;;
56429;SDS011;42332;52.136;20.666;2023-04-28T00:48:16;24.10;;;9.38;;
56429;SDS011;42332;52.136;20.666;2023-04-28T00:50:42;25.10;;;9.90;;
56429;SDS011;42332;52.136;20.666;2023-04-28T00:53:09;24.98;;;10.25;;
56429;SDS011;42332;52.136;20.666;2023-04-28T00:55:35;25.08;;;10.57;;
56429;SDS011;42332;52.136;20.666;2023-04-28T00:58:01;23.35;;;9.98;;
56429;SDS011;42332;52.136;20.666;2023-04-28T01:00:26;25.17;;;9.00;;
56429;SDS011;42332;52.136;20.666;2023-04-28T01:02:52;24.48;;;10.38;;
56429;SDS011;42332;52.136;20.666;2023-04-28T01:05:18;29.60;;;10.27;;
56429;SDS011;42332;52.136;20.666;2023-04-28T01:07:43;27.13;;;9.93;;
56429;SDS011;42332;52.136;20.666;2023-04-28T01:10:09;27.52;;;10.57;;
56429;SDS011;42332;52.136;20.666;2023-04-28T01:12:34;24.77;;;10.00;;
56429;SDS011;42332;52.136;20.666;2023-04-28T01:15:00;24.88;;;9.55;;
56429;SDS011;42332;52.136;20.666;2023-04-28T01:17:25;30.60;;;10.02;;
56429;SDS011;42332;52.136;20.666;2023-04-28T01:19:51;20.42;;;9.70;;
56429;SDS011;42332;52.136;20.666;2023-04-28T01:22:17;28.80;;;9.90;;
56429;SDS011;42332;52.136;20.666;2023-04-28T01:24:42;21.67;;;8.35;;
56429;SDS011;42332;52.136;20.666;2023-04-28T01:27:08;23.58;;;9.65;;
56429;SDS011;42332;52.136;20.666;2023-04-28T01:29:33;27.17;;;9.38;;
56429;SDS011;42332;52.136;20.666;2023-04-28T01:31:58;23.98;;;9.85;;
56429;SDS011;42332;52.136;20.666;2023-04-28T01:34:24;21.20;;;9.23;;
56429;SDS011;42332;52.136;20.666;2023-04-28T01:36:49;22.02;;;9.43;;
56429;SDS011;42332;52.136;20.666;2023-04-28T01:39:14;18.98;;;9.25;;
56429;SDS011;42332;52.136;20.666;2023-04-28T01:41:40;22.52;;;9.18;;
56429;SDS011;42332;52.136;20.666;2023-04-28T01:44:06;23.88;;;9.75;;
56429;SDS011;42332;52.136;20.666;2023-04-28T01:46:31;26.73;;;9.93;;
56429;SDS011;42332;52.136;20.666;2023-04-28T01:48:57;25.40;;;10.43;;
56429;SDS011;42332;52.136;20.666;2023-04-28T01:51:22;19.92;;;9.52;;
56429;SDS011;42332;52.136;20.666;2023-04-28T01:53:48;17.77;;;9.30;;
56429;SDS011;42332;52.136;20.666;2023-04-28T01:56:13;24.88;;;9.48;;
56429;SDS011;42332;52.136;20.666;2023-04-28T01:58:38;24.55;;;10.48;;
56429;SDS011;42332;52.136;20.666;2023-04-28T02:01:03;22.60;;;10.00;;
56429;SDS011;42332;52.136;20.666;2023-04-28T02:03:29;25.00;;;9.95;;
56429;SDS011;42332;52.136;20.666;2023-04-28T02:05:54;18.23;;;9.35;;
56429;SDS011;42332;52.136;20.666;2023-04-28T02:08:20;32.25;;;10.55;;
56429;SDS011;42332;52.136;20.666;2023-04-28T02:10:45;27.40;;;9.73;;
56429;SDS011;42332;52.136;20.666;2023-04-28T02:13:10;23.27;;;10.18;;
56429;SDS011;42332;52.136;20.666;2023-04-28T02:15:42;31.42;;;11.85;;
56429;SDS011;42332;52.136;20.666;2023-04-28T02:18:08;24.20;;;9.82;;
56429;SDS011;42332;52.136;20.666;2023-04-28T02:20:34;30.23;;;10.85;;
56429;SDS011;42332;52.136;20.666;2023-04-28T02:22:59;25.58;;;10.80;;
56429;SDS011;42332;52.136;20.666;2023-04-28T02:25:24;23.08;;;9.70;;
56429;SDS011;42332;52.136;20.666;2023-04-28T02:27:49;17.58;;;8.80;;
56429;SDS011;42332;52.136;20.666;2023-04-28T02:30:15;30.40;;;10.57;;
56429;SDS011;42332;52.136;20.666;2023-04-28T02:32:40;27.50;;;11.80;;
56429;SDS011;42332;52.136;20.666;2023-04-28T02:35:06;22.48;;;9.13;;
56429;SDS011;42332;52.136;20.666;2023-04-28T02:37:32;25.55;;;10.15;;
56429;SDS011;42332;52.136;20.666;2023-04-28T02:39:57;23.83;;;9.93;;
56429;SDS011;42332;52.136;20.666;2023-04-28T02:42:22;23.42;;;9.30;;
56429;SDS011;42332;52.136;20.666;2023-04-28T02:44:48;23.23;;;10.07;;
56429;SDS011;42332;52.136;20.666;2023-04-28T02:47:13;28.73;;;11.07;;
56429;SDS011;42332;52.136;20.666;2023-04-28T02:49:38;38.30;;;11.93;;
56429;SDS011;42332;52.136;20.666;2023-04-28T02:52:04;23.45;;;10.50;;
56429;SDS011;42332;52.136;20.666;2023-04-28T02:54:29;26.80;;;10.38;;
56429;SDS011;42332;52.136;20.666;2023-04-28T02:56:55;30.50;;;11.07;;
56429;SDS011;42332;52.136;20.666;2023-04-28T02:59:21;24.85;;;9.43;;
56429;SDS011;42332;52.136;20.666;2023-04-28T03:01:47;22.33;;;9.60;;
56429;SDS011;42332;52.136;20.666;2023-04-28T03:04:13;22.33;;;8.85;;
56429;SDS011;42332;52.136;20.666;2023-04-28T03:06:39;33.45;;;10.52;;
56429;SDS011;42332;52.136;20.666;2023-04-28T03:09:05;22.02;;;9.05;;
56429;SDS011;42332;52.136;20.666;2023-04-28T03:11:30;26.48;;;10.23;;
56429;SDS011;42332;52.136;20.666;2023-04-28T03:13:56;20.80;;;9.35;;
56429;SDS011;42332;52.136;20.666;2023-04-28T03:16:21;27.58;;;10.10;;
56429;SDS011;42332;52.136;20.666;2023-04-28T03:18:46;26.27;;;9.27;;
56429;SDS011;42332;52.136;20.666;2023-04-28T03:21:12;22.02;;;9.05;;
56429;SDS011;42332;52.136;20.666;2023-04-28T03:23:37;24.55;;;8.50;;
56429;SDS011;42332;52.136;20.666;2023-04-28T03:26:02;24.90;;;9.88;;
56429;SDS011;42332;52.136;20.666;2023-04-28T03:28:28;24.88;;;9.00;;
56429;SDS011;42332;52.136;20.666;2023-04-28T03:30:53;23.88;;;9.75;;
56429;SDS011;42332;52.136;20.666;2023-04-28T03:33:19;23.27;;;9.05;;
56429;SDS011;42332;52.136;20.666;2023-04-28T03:35:44;21.55;;;9.57;;
56429;SDS011;42332;52.136;20.666;2023-04-28T03:38:09;31.98;;;10.23;;
56429;SDS011;42332;52.136;20.666;2023-04-28T03:40:35;22.65;;;9.82;;
56429;SDS011;42332;52.136;20.666;2023-04-28T03:43:01;21.92;;;8.73;;
56429;SDS011;42332;52.136;20.666;2023-04-28T03:45:26;26.02;;;9.05;;
56429;SDS011;42332;52.136;20.666;2023-04-28T03:47:51;18.35;;;9.38;;
56429;SDS011;42332;52.136;20.666;2023-04-28T03:50:17;34.05;;;8.95;;
56429;SDS011;42332;52.136;20.666;2023-04-28T03:52:42;28.83;;;10.13;;
56429;SDS011;42332;52.136;20.666;2023-04-28T03:55:08;22.05;;;9.52;;
56429;SDS011;42332;52.136;20.666;2023-04-28T03:57:34;26.08;;;9.98;;
56429;SDS011;42332;52.136;20.666;2023-04-28T04:00:00;25.98;;;9.35;;
56429;SDS011;42332;52.136;20.666;2023-04-28T04:02:25;25.83;;;10.27;;
56429;SDS011;42332;52.136;20.666;2023-04-28T04:04:51;25.42;;;9.82;;
56429;SDS011;42332;52.136;20.666;2023-04-28T04:07:16;20.80;;;9.30;;
56429;SDS011;42332;52.136;20.666;2023-04-28T04:09:41;28.27;;;9.63;;
56429;SDS011;42332;52.136;20.666;2023-04-28T04:12:07;20.67;;;9.68;;
56429;SDS011;42332;52.136;20.666;2023-04-28T04:14:32;29.67;;;10.85;;
56429;SDS011;42332;52.136;20.666;2023-04-28T04:16:57;23.70;;;9.77;;
56429;SDS011;42332;52.136;20.666;2023-04-28T04:19:23;34.30;;;10.80;;
56429;SDS011;42332;52.136;20.666;2023-04-28T04:21:50;27.48;;;10.00;;
56429;SDS011;42332;52.136;20.666;2023-04-28T04:24:16;24.13;;;9.88;;
56429;SDS011;42332;52.136;20.666;2023-04-28T04:26:41;27.25;;;10.73;;
56429;SDS011;42332;52.136;20.666;2023-04-28T04:29:06;29.85;;;10.13;;
56429;SDS011;42332;52.136;20.666;2023-04-28T04:31:32;21.58;;;10.48;;
56429;SDS011;42332;52.136;20.666;2023-04-28T04:33:57;30.90;;;10.85;;
56429;SDS011;42332;52.136;20.666;2023-04-28T04:36:23;22.42;;;8.40;;
56429;SDS011;42332;52.136;20.666;2023-04-28T04:38:48;32.03;;;10.57;;
56429;SDS011;42332;52.136;20.666;2023-04-28T04:41:13;35.92;;;11.48;;
56429;SDS011;42332;52.136;20.666;2023-04-28T04:43:39;38.28;;;11.00;;
56429;SDS011;42332;52.136;20.666;2023-04-28T04:46:05;23.27;;;10.23;;
56429;SDS011;42332;52.136;20.666;2023-04-28T04:48:31;27.85;;;10.45;;
56429;SDS011;42332;52.136;20.666;2023-04-28T04:50:56;32.95;;;11.27;;
56429;SDS011;42332;52.136;20.666;2023-04-28T04:53:22;36.50;;;11.73;;
56429;SDS011;42332;52.136;20.666;2023-04-28T04:55:47;39.10;;;10.80;;
56429;SDS011;42332;52.136;20.666;2023-04-28T04:58:12;34.10;;;10.93;;
56429;SDS011;42332;52.136;20.666;2023-04-28T05:00:38;27.33;;;10.10;;
56429;SDS011;42332;52.136;20.666;2023-04-28T05:03:03;27.95;;;10.80;;
56429;SDS011;42332;52.136;20.666;2023-04-28T05:05:30;23.45;;;10.55;;
56429;SDS011;42332;52.136;20.666;2023-04-28T05:07:55;30.27;;;11.63;;
56429;SDS011;42332;52.136;20.666;2023-04-28T05:10:21;30.83;;;11.60;;
56429;SDS011;42332;52.136;20.666;2023-04-28T05:12:46;30.73;;;11.05;;
56429;SDS011;42332;52.136;20.666;2023-04-28T05:15:12;33.85;;;10.95;;
56429;SDS011;42332;52.136;20.666;2023-04-28T05:17:37;35.45;;;10.93;;
56429;SDS011;42332;52.136;20.666;2023-04-28T05:20:02;43.78;;;16.25;;
56429;SDS011;42332;52.136;20.666;2023-04-28T05:22:28;33.50;;;12.27;;
56429;SDS011;42332;52.136;20.666;2023-04-28T05:24:55;22.90;;;10.57;;
56429;SDS011;42332;52.136;20.666;2023-04-28T05:27:20;26.17;;;9.70;;
56429;SDS011;42332;52.136;20.666;2023-04-28T05:29:46;29.40;;;10.30;;
56429;SDS011;42332;52.136;20.666;2023-04-28T05:32:11;27.05;;;8.98;;
56429;SDS011;42332;52.136;20.666;2023-04-28T05:34:36;24.85;;;9.00;;
56429;SDS011;42332;52.136;20.666;2023-04-28T05:37:02;32.63;;;8.35;;
56429;SDS011;42332;52.136;20.666;2023-04-28T05:39:27;19.48;;;8.00;;
56429;SDS011;42332;52.136;20.666;2023-04-28T05:41:52;20.63;;;8.57;;
56429;SDS011;42332;52.136;20.666;2023-04-28T05:44:18;29.92;;;9.68;;
56429;SDS011;42332;52.136;20.666;2023-04-28T05:46:43;24.70;;;9.38;;
56429;SDS011;42332;52.136;20.666;2023-04-28T05:49:09;23.77;;;10.25;;
56429;SDS011;42332;52.136;20.666;2023-04-28T05:51:34;21.85;;;9.15;;
56429;SDS011;42332;52.136;20.666;2023-04-28T05:54:00;20.85;;;8.30;;
56429;SDS011;42332;52.136;20.666;2023-04-28T05:56:25;22.35;;;8.60;;
56429;SDS011;42332;52.136;20.666;2023-04-28T05:58:51;42.17;;;10.13;;
56429;SDS011;42332;52.136;20.666;2023-04-28T06:01:16;19.70;;;8.55;;
56429;SDS011;42332;52.136;20.666;2023-04-28T06:03:42;32.50;;;9.35;;
56429;SDS011;42332;52.136;20.666;2023-04-28T06:06:07;24.00;;;9.52;;
56429;SDS011;42332;52.136;20.666;2023-04-28T06:08:33;27.45;;;9.32;;
56429;SDS011;42332;52.136;20.666;2023-04-28T06:10:58;30.25;;;10.07;;
56429;SDS011;42332;52.136;20.666;2023-04-28T06:13:24;24.65;;;9.32;;
56429;SDS011;42332;52.136;20.666;2023-04-28T06:15:49;23.48;;;8.38;;
56429;SDS011;42332;52.136;20.666;2023-04-28T06:18:14;27.85;;;9.50;;
56429;SDS011;42332;52.136;20.666;2023-04-28T06:20:42;25.65;;;8.70;;
56429;SDS011;42332;52.136;20.666;2023-04-28T06:23:08;28.33;;;7.85;;
56429;SDS011;42332;52.136;20.666;2023-04-28T06:25:34;25.65;;;8.98;;
56429;SDS011;42332;52.136;20.666;2023-04-28T06:28:00;16.40;;;7.53;;
56429;SDS011;42332;52.136;20.666;2023-04-28T06:30:25;17.23;;;7.82;;
56429;SDS011;42332;52.136;20.666;2023-04-28T06:32:51;22.63;;;7.65;;
56429;SDS011;42332;52.136;20.666;2023-04-28T06:35:16;18.48;;;7.93;;
56429;SDS011;42332;52.136;20.666;2023-04-28T06:37:42;22.73;;;8.30;;
56429;SDS011;42332;52.136;20.666;2023-04-28T06:40:08;17.45;;;7.03;;
56429;SDS011;42332;52.136;20.666;2023-04-28T06:42:34;15.30;;;7.53;;
56429;SDS011;42332;52.136;20.666;2023-04-28T06:44:59;19.80;;;6.72;;
56429;SDS011;42332;52.136;20.666;2023-04-28T06:47:25;20.40;;;8.15;;
56429;SDS011;42332;52.136;20.666;2023-04-28T06:49:50;19.30;;;7.22;;
56429;SDS011;42332;52.136;20.666;2023-04-28T06:52:16;23.30;;;7.63;;
56429;SDS011;42332;52.136;20.666;2023-04-28T06:54:41;26.63;;;7.30;;
56429;SDS011;42332;52.136;20.666;2023-04-28T06:57:07;19.60;;;6.72;;
56429;SDS011;42332;52.136;20.666;2023-04-28T06:59:32;19.33;;;7.55;;
56429;SDS011;42332;52.136;20.666;2023-04-28T07:01:58;16.60;;;6.65;;
56429;SDS011;42332;52.136;20.666;2023-04-28T07:04:24;18.70;;;6.93;;
56429;SDS011;42332;52.136;20.666;2023-04-28T07:06:49;16.17;;;6.28;;
56429;SDS011;42332;52.136;20.666;2023-04-28T07:09:14;20.05;;;6.57;;
56429;SDS011;42332;52.136;20.666;2023-04-28T07:11:41;18.58;;;6.90;;
56429;SDS011;42332;52.136;20.666;2023-04-28T07:14:06;22.98;;;6.50;;
56429;SDS011;42332;52.136;20.666;2023-04-28T07:16:32;14.32;;;5.95;;
56429;SDS011;42332;52.136;20.666;2023-04-28T07:18:57;13.15;;;5.28;;
56429;SDS011;42332;52.136;20.666;2023-04-28T07:21:23;11.52;;;5.50;;
56429;SDS011;42332;52.136;20.666;2023-04-28T07:23:48;18.58;;;4.03;;
56429;SDS011;42332;52.136;20.666;2023-04-28T07:26:14;20.65;;;5.72;;
56429;SDS011;42332;52.136;20.666;2023-04-28T07:28:40;11.52;;;5.05;;
56429;SDS011;42332;52.136;20.666;2023-04-28T07:31:06;15.55;;;4.85;;
56429;SDS011;42332;52.136;20.666;2023-04-28T07:33:31;10.88;;;4.70;;
56429;SDS011;42332;52.136;20.666;2023-04-28T07:35:56;11.75;;;4.70;;
56429;SDS011;42332;52.136;20.666;2023-04-28T07:38:22;10.75;;;3.58;;
56429;SDS011;42332;52.136;20.666;2023-04-28T07:40:47;5.97;;;2.15;;
56429;SDS011;42332;52.136;20.666;2023-04-28T07:43:13;12.27;;;2.78;;
56429;SDS011;42332;52.136;20.666;2023-04-28T07:45:38;8.43;;;2.85;;
56429;SDS011;42332;52.136;20.666;2023-04-28T07:48:04;7.07;;;2.38;;
56429;SDS011;42332;52.136;20.666;2023-04-28T07:50:30;6.80;;;2.50;;
56429;SDS011;42332;52.136;20.666;2023-04-28T07:52:55;13.73;;;3.50;;
56429;SDS011;42332;52.136;20.666;2023-04-28T07:55:21;6.57;;;2.50;;
56429;SDS011;42332;52.136;20.666;2023-04-28T07:57:47;5.30;;;2.20;;
56429;SDS011;42332;52.136;20.666;2023-04-28T08:00:13;9.45;;;2.83;;
56429;SDS011;42332;52.136;20.666;2023-04-28T08:02:39;9.73;;;3.08;;
56429;SDS011;42332;52.136;20.666;2023-04-28T08:05:04;7.85;;;2.40;;
56429;SDS011;42332;52.136;20.666;2023-04-28T08:07:31;13.65;;;3.50;;
56429;SDS011;42332;52.136;20.666;2023-04-28T08:09:57;14.90;;;3.40;;
56429;SDS011;42332;52.136;20.666;2023-04-28T08:12:23;6.80;;;3.10;;
56429;SDS011;42332;52.136;20.666;2023-04-28T08:14:48;8.98;;;2.85;;
56429;SDS011;42332;52.136;20.666;2023-04-28T08:17:13;8.43;;;3.00;;
56429;SDS011;42332;52.136;20.666;2023-04-28T08:19:38;7.22;;;2.72;;
56429;SDS011;42332;52.136;20.666;2023-04-28T08:22:04;10.18;;;3.17;;
56429;SDS011;42332;52.136;20.666;2023-04-28T08:24:31;7.70;;;2.92;;
56429;SDS011;42332;52.136;20.666;2023-04-28T08:26:59;13.50;;;3.72;;
56429;SDS011;42332;52.136;20.666;2023-04-28T08:29:27;20.00;;;3.30;;
56429;SDS011;42332;52.136;20.666;2023-04-28T08:31:53;14.23;;;2.97;;
56429;SDS011;42332;52.136;20.666;2023-04-28T08:34:18;15.20;;;4.00;;
56429;SDS011;42332;52.136;20.666;2023-04-28T08:36:44;12.52;;;3.75;;
56429;SDS011;42332;52.136;20.666;2023-04-28T08:39:10;7.55;;;2.83;;
56429;SDS011;42332;52.136;20.666;2023-04-28T08:41:37;9.05;;;2.90;;
56429;SDS011;42332;52.136;20.666;2023-04-28T08:44:10;10.80;;;3.38;;
56429;SDS011;42332;52.136;20.666;2023-04-28T08:46:38;8.95;;;3.63;;
56429;SDS011;42332;52.136;20.666;2023-04-28T08:49:05;7.93;;;3.45;;
56429;SDS011;42332;52.136;20.666;2023-04-28T08:51:33;10.65;;;4.05;;
56429;SDS011;42332;52.136;20.666;2023-04-28T08:54:01;10.07;;;3.42;;
56429;SDS011;42332;52.136;20.666;2023-04-28T08:56:32;8.05;;;2.47;;
56429;SDS011;42332;52.136;20.666;2023-04-28T08:59:02;7.55;;;2.60;;
56429;SDS011;42332;52.136;20.666;2023-04-28T09:01:30;11.10;;;3.20;;
56429;SDS011;42332;52.136;20.666;2023-04-28T09:03:56;6.30;;;2.80;;
56429;SDS011;42332;52.136;20.666;2023-04-28T09:06:22;7.93;;;2.67;;
56429;SDS011;42332;52.136;20.666;2023-04-28T09:08:47;5.85;;;2.40;;
56429;SDS011;42332;52.136;20.666;2023-04-28T09:11:13;8.15;;;2.45;;
56429;SDS011;42332;52.136;20.666;2023-04-28T09:13:39;7.60;;;2.45;;
56429;SDS011;42332;52.136;20.666;2023-04-28T09:16:05;11.70;;;3.25;;
56429;SDS011;42332;52.136;20.666;2023-04-28T09:18:31;8.48;;;2.50;;
56429;SDS011;42332;52.136;20.666;2023-04-28T09:21:07;6.50;;;2.00;;
56429;SDS011;42332;52.136;20.666;2023-04-28T09:23:34;4.93;;;1.95;;
56429;SDS011;42332;52.136;20.666;2023-04-28T09:26:11;8.63;;;2.35;;
56429;SDS011;42332;52.136;20.666;2023-04-28T09:28:36;8.60;;;2.20;;
56429;SDS011;42332;52.136;20.666;2023-04-28T09:31:01;7.55;;;2.50;;
56429;SDS011;42332;52.136;20.666;2023-04-28T09:33:27;11.80;;;2.47;;
56429;SDS011;42332;52.136;20.666;2023-04-28T09:35:53;5.70;;;2.30;;
56429;SDS011;42332;52.136;20.666;2023-04-28T09:38:19;9.52;;;4.10;;
56429;SDS011;42332;52.136;20.666;2023-04-28T09:40:49;7.32;;;2.58;;
56429;SDS011;42332;52.136;20.666;2023-04-28T09:43:24;7.70;;;2.50;;
56429;SDS011;42332;52.136;20.666;2023-04-28T09:45:51;8.60;;;2.38;;
56429;SDS011;42332;52.136;20.666;2023-04-28T09:48:17;9.63;;;2.30;;
56429;SDS011;42332;52.136;20.666;2023-04-28T09:50:52;5.13;;;2.25;;
56429;SDS011;42332;52.136;20.666;2023-04-28T09:53:18;7.95;;;2.20;;
56429;SDS011;42332;52.136;20.666;2023-04-28T09:55:53;7.32;;;2.17;;
56429;SDS011;42332;52.136;20.666;2023-04-28T09:58:20;5.82;;;2.22;;
56429;SDS011;42332;52.136;20.666;2023-04-28T10:00:47;3.13;;;1.23;;
56429;SDS011;42332;52.136;20.666;2023-04-28T10:03:23;6.82;;;1.98;;
56429;SDS011;42332;52.136;20.666;2023-04-28T10:05:50;6.70;;;2.28;;
56429;SDS011;42332;52.136;20.666;2023-04-28T10:08:17;6.78;;;2.13;;
56429;SDS011;42332;52.136;20.666;2023-04-28T10:10:44;4.68;;;2.08;;
56429;SDS011;42332;52.136;20.666;2023-04-28T10:13:12;6.53;;;1.92;;
56429;SDS011;42332;52.136;20.666;2023-04-28T10:15:39;7.93;;;1.95;;
56429;SDS011;42332;52.136;20.666;2023-04-28T10:18:04;6.25;;;2.40;;
56429;SDS011;42332;52.136;20.666;2023-04-28T10:20:30;7.57;;;2.25;;
56429;SDS011;42332;52.136;20.666;2023-04-28T10:23:04;6.28;;;2.30;;
56429;SDS011;42332;52.136;20.666;2023-04-28T10:25:36;8.30;;;2.22;;
56429;SDS011;42332;52.136;20.666;2023-04-28T10:28:06;8.68;;;2.22;;
56429;SDS011;42332;52.136;20.666;2023-04-28T10:30:32;7.95;;;2.33;;
56429;SDS011;42332;52.136;20.666;2023-04-28T10:33:21;15.68;;;2.97;;
56429;SDS011;42332;52.136;20.666;2023-04-28T10:35:48;8.30;;;2.35;;
56429;SDS011;42332;52.136;20.666;2023-04-28T10:38:14;8.93;;;2.90;;
56429;SDS011;42332;52.136;20.666;2023-04-28T10:40:44;6.63;;;2.33;;
56429;SDS011;42332;52.136;20.666;2023-04-28T10:43:11;7.05;;;2.20;;
56429;SDS011;42332;52.136;20.666;2023-04-28T10:56:08;8.05;;;2.80;;
56429;SDS011;42332;52.136;20.666;2023-04-28T10:58:42;6.63;;;2.95;;
56429;SDS011;42332;52.136;20.666;2023-04-28T11:03:57;10.77;;;3.00;;
56429;SDS011;42332;52.136;20.666;2023-04-28T11:11:38;9.27;;;2.80;;
56429;SDS011;42332;52.136;20.666;2023-04-28T11:19:14;5.72;;;2.60;;
56429;SDS011;42332;52.136;20.666;2023-04-28T11:21:42;9.77;;;3.15;;
56429;SDS011;42332;52.136;20.666;2023-04-28T11:24:08;8.05;;;4.15;;
56429;SDS011;42332;52.136;20.666;2023-04-28T11:26:35;7.47;;;2.72;;
56429;SDS011;42332;52.136;20.666;2023-04-28T11:29:01;7.45;;;2.95;;
56429;SDS011;42332;52.136;20.666;2023-04-28T11:31:26;9.27;;;3.40;;
56429;SDS011;42332;52.136;20.666;2023-04-28T11:33:53;6.15;;;2.90;;
56429;SDS011;42332;52.136;20.666;2023-04-28T11:36:32;9.50;;;3.20;;
56429;SDS011;42332;52.136;20.666;2023-04-28T11:38:57;11.18;;;4.00;;
56429;SDS011;42332;52.136;20.666;2023-04-28T11:41:23;12.63;;;3.60;;
56429;SDS011;42332;52.136;20.666;2023-04-28T11:43:49;7.35;;;3.33;;
56429;SDS011;42332;52.136;20.666;2023-04-28T11:46:18;11.73;;;3.67;;
56429;SDS011;42332;52.136;20.666;2023-04-28T11:48:45;9.43;;;3.42;;
56429;SDS011;42332;52.136;20.666;2023-04-28T11:51:30;15.45;;;3.58;;
56429;SDS011;42332;52.136;20.666;2023-04-28T11:54:03;9.68;;;3.40;;
56429;SDS011;42332;52.136;20.666;2023-04-28T11:56:30;11.50;;;4.00;;
56429;SDS011;42332;52.136;20.666;2023-04-28T12:01:29;10.27;;;3.42;;
56429;SDS011;42332;52.136;20.666;2023-04-28T12:03:55;7.88;;;3.45;;
56429;SDS011;42332;52.136;20.666;2023-04-28T12:06:21;11.13;;;4.00;;
56429;SDS011;42332;52.136;20.666;2023-04-28T12:08:47;7.78;;;3.45;;
56429;SDS011;42332;52.136;20.666;2023-04-28T12:11:13;8.55;;;2.92;;
56429;SDS011;42332;52.136;20.666;2023-04-28T12:13:39;6.90;;;3.45;;
56429;SDS011;42332;52.136;20.666;2023-04-28T12:16:05;6.88;;;3.47;;
56429;SDS011;42332;52.136;20.666;2023-04-28T12:18:31;12.85;;;3.92;;
56429;SDS011;42332;52.136;20.666;2023-04-28T12:21:03;10.63;;;3.28;;
56429;SDS011;42332;52.136;20.666;2023-04-28T12:23:32;8.60;;;3.70;;
56429;SDS011;42332;52.136;20.666;2023-04-28T12:25:58;11.80;;;3.67;;
56429;SDS011;42332;52.136;20.666;2023-04-28T12:28:37;8.18;;;3.80;;
56429;SDS011;42332;52.136;20.666;2023-04-28T12:31:04;10.40;;;4.00;;
56429;SDS011;42332;52.136;20.666;2023-04-28T12:33:31;11.02;;;3.70;;
56429;SDS011;42332;52.136;20.666;2023-04-28T12:36:01;8.68;;;3.72;;
56429;SDS011;42332;52.136;20.666;2023-04-28T12:38:26;8.38;;;3.70;;
56429;SDS011;42332;52.136;20.666;2023-04-28T12:40:52;8.05;;;3.03;;
56429;SDS011;42332;52.136;20.666;2023-04-28T12:43:18;9.27;;;3.40;;
56429;SDS011;42332;52.136;20.666;2023-04-28T12:45:45;8.40;;;3.80;;
56429;SDS011;42332;52.136;20.666;2023-04-28T12:48:10;8.85;;;3.78;;
56429;SDS011;42332;52.136;20.666;2023-04-28T12:50:36;9.38;;;4.80;;
56429;SDS011;42332;52.136;20.666;2023-04-28T12:53:01;5.35;;;2.95;;
56429;SDS011;42332;52.136;20.666;2023-04-28T12:55:27;8.38;;;4.53;;
56429;SDS011;42332;52.136;20.666;2023-04-28T12:57:53;9.13;;;4.28;;
56429;SDS011;42332;52.136;20.666;2023-04-28T13:00:19;10.15;;;4.28;;
56429;SDS011;42332;52.136;20.666;2023-04-28T13:02:48;10.38;;;3.92;;
56429;SDS011;42332;52.136;20.666;2023-04-28T13:05:14;8.15;;;3.60;;
56429;SDS011;42332;52.136;20.666;2023-04-28T13:07:40;9.05;;;4.28;;
56429;SDS011;42332;52.136;20.666;2023-04-28T13:10:05;11.02;;;3.92;;
56429;SDS011;42332;52.136;20.666;2023-04-28T13:12:32;8.38;;;3.95;;
56429;SDS011;42332;52.136;20.666;2023-04-28T13:14:58;10.52;;;3.83;;
56429;SDS011;42332;52.136;20.666;2023-04-28T13:17:25;12.50;;;4.43;;
56429;SDS011;42332;52.136;20.666;2023-04-28T13:19:51;7.38;;;3.88;;
56429;SDS011;42332;52.136;20.666;2023-04-28T13:22:16;12.10;;;4.47;;
56429;SDS011;42332;52.136;20.666;2023-04-28T13:24:42;9.18;;;3.97;;
56429;SDS011;42332;52.136;20.666;2023-04-28T13:27:07;9.93;;;3.75;;
56429;SDS011;42332;52.136;20.666;2023-04-28T13:29:33;11.45;;;3.85;;
56429;SDS011;42332;52.136;20.666;2023-04-28T13:32:00;11.77;;;3.80;;
56429;SDS011;42332;52.136;20.666;2023-04-28T13:34:25;10.02;;;4.22;;
56429;SDS011;42332;52.136;20.666;2023-04-28T13:36:51;11.40;;;3.88;;
56429;SDS011;42332;52.136;20.666;2023-04-28T13:39:18;13.38;;;4.30;;
56429;SDS011;42332;52.136;20.666;2023-04-28T13:41:45;8.75;;;4.35;;
56429;SDS011;42332;52.136;20.666;2023-04-28T13:44:10;9.40;;;4.15;;
56429;SDS011;42332;52.136;20.666;2023-04-28T13:46:36;10.98;;;4.78;;
56429;SDS011;42332;52.136;20.666;2023-04-28T13:49:01;13.93;;;4.85;;
56429;SDS011;42332;52.136;20.666;2023-04-28T13:51:27;9.00;;;4.05;;
56429;SDS011;42332;52.136;20.666;2023-04-28T13:53:52;11.82;;;4.72;;
56429;SDS011;42332;52.136;20.666;2023-04-28T13:56:18;10.70;;;3.95;;
56429;SDS011;42332;52.136;20.666;2023-04-28T13:58:44;13.75;;;3.65;;
56429;SDS011;42332;52.136;20.666;2023-04-28T14:01:09;7.47;;;3.40;;
56429;SDS011;42332;52.136;20.666;2023-04-28T14:03:34;12.30;;;3.58;;
56429;SDS011;42332;52.136;20.666;2023-04-28T14:06:00;11.85;;;3.45;;
56429;SDS011;42332;52.136;20.666;2023-04-28T14:08:25;9.40;;;3.42;;
56429;SDS011;42332;52.136;20.666;2023-04-28T14:10:51;15.15;;;4.15;;
56429;SDS011;42332;52.136;20.666;2023-04-28T14:13:17;9.15;;;4.30;;
56429;SDS011;42332;52.136;20.666;2023-04-28T14:15:43;10.13;;;4.00;;
56429;SDS011;42332;52.136;20.666;2023-04-28T14:18:09;13.75;;;4.32;;
56429;SDS011;42332;52.136;20.666;2023-04-28T14:20:35;14.23;;;3.33;;
56429;SDS011;42332;52.136;20.666;2023-04-28T14:23:01;6.53;;;3.67;;
56429;SDS011;42332;52.136;20.666;2023-04-28T14:25:27;11.63;;;4.07;;
56429;SDS011;42332;52.136;20.666;2023-04-28T14:27:52;12.45;;;4.00;;
56429;SDS011;42332;52.136;20.666;2023-04-28T14:30:18;17.00;;;4.20;;
56429;SDS011;42332;52.136;20.666;2023-04-28T14:32:44;11.18;;;4.50;;
56429;SDS011;42332;52.136;20.666;2023-04-28T14:35:09;8.95;;;4.32;;
56429;SDS011;42332;52.136;20.666;2023-04-28T14:37:36;6.68;;;3.55;;
56429;SDS011;42332;52.136;20.666;2023-04-28T14:40:01;11.55;;;4.55;;
56429;SDS011;42332;52.136;20.666;2023-04-28T14:42:29;10.18;;;4.63;;
56429;SDS011;42332;52.136;20.666;2023-04-28T14:44:56;10.77;;;4.20;;